sensor_id;sensor_type;location;lat;lon;timestamp;temperature;humidity
73322;DHT22;61549;37.044;22.128;2022-12-17T00:01:23;19.40;59.90
73322;DHT22;61549;37.044;22.128;2022-12-17T00:04:07;19.30;60.10
73322;DHT22;61549;37.044;22.128;2022-12-17T00:06:51;19.20;60.00
73322;DHT22;61549;37.044;22.128;2022-12-17T00:09:36;19.20;60.00
73322;DHT22;61549;37.044;22.128;2022-12-17T00:12:21;19.10;60.20
73322;DHT22;61549;37.044;22.128;2022-12-17T00:15:09;19.10;60.30
73322;DHT22;61549;37.044;22.128;2022-12-17T00:18:02;19.10;60.60
73322;DHT22;61549;37.044;22.128;2022-12-17T00:20:51;19.00;61.00
73322;DHT22;61549;37.044;22.128;2022-12-17T00:23:36;19.10;61.30
73322;DHT22;61549;37.044;22.128;2022-12-17T00:26:21;19.10;61.30
73322;DHT22;61549;37.044;22.128;2022-12-17T00:29:05;19.10;61.30
73322;DHT22;61549;37.044;22.128;2022-12-17T00:31:49;19.00;61.10
73322;DHT22;61549;37.044;22.128;2022-12-17T00:34:33;19.00;61.00
73322;DHT22;61549;37.044;22.128;2022-12-17T00:37:18;19.00;60.80
73322;DHT22;61549;37.044;22.128;2022-12-17T00:40:06;18.90;60.80
73322;DHT22;61549;37.044;22.128;2022-12-17T00:43:02;18.90;61.00
73322;DHT22;61549;37.044;22.128;2022-12-17T00:45:48;18.90;61.00
73322;DHT22;61549;37.044;22.128;2022-12-17T00:48:34;18.90;61.30
73322;DHT22;61549;37.044;22.128;2022-12-17T00:51:19;18.80;61.40
73322;DHT22;61549;37.044;22.128;2022-12-17T00:54:04;18.80;61.60
73322;DHT22;61549;37.044;22.128;2022-12-17T00:56:49;18.80;61.60
73322;DHT22;61549;37.044;22.128;2022-12-17T00:59:34;18.80;61.70
73322;DHT22;61549;37.044;22.128;2022-12-17T01:02:18;18.80;61.70
73322;DHT22;61549;37.044;22.128;2022-12-17T01:05:03;18.80;61.60
73322;DHT22;61549;37.044;22.128;2022-12-17T01:07:47;18.80;61.40
73322;DHT22;61549;37.044;22.128;2022-12-17T01:10:32;18.80;61.20
73322;DHT22;61549;37.044;22.128;2022-12-17T01:13:19;18.80;61.10
73322;DHT22;61549;37.044;22.128;2022-12-17T01:16:09;18.90;61.20
73322;DHT22;61549;37.044;22.128;2022-12-17T01:18:54;18.90;61.20
73322;DHT22;61549;37.044;22.128;2022-12-17T01:21:40;18.90;61.30
73322;DHT22;61549;37.044;22.128;2022-12-17T01:24:26;18.90;61.30
73322;DHT22;61549;37.044;22.128;2022-12-17T01:27:11;18.80;61.10
73322;DHT22;61549;37.044;22.128;2022-12-17T01:29:56;18.80;61.10
73322;DHT22;61549;37.044;22.128;2022-12-17T01:32:40;18.80;61.10
73322;DHT22;61549;37.044;22.128;2022-12-17T01:35:24;18.80;61.10
73322;DHT22;61549;37.044;22.128;2022-12-17T01:38:13;18.90;61.10
73322;DHT22;61549;37.044;22.128;2022-12-17T01:40:58;18.90;61.00
73322;DHT22;61549;37.044;22.128;2022-12-17T01:43:43;18.90;61.10
73322;DHT22;61549;37.044;22.128;2022-12-17T01:46:38;18.90;61.30
73322;DHT22;61549;37.044;22.128;2022-12-17T01:49:25;18.80;61.30
73322;DHT22;61549;37.044;22.128;2022-12-17T01:52:12;18.80;61.40
73322;DHT22;61549;37.044;22.128;2022-12-17T01:54:59;18.80;61.30
73322;DHT22;61549;37.044;22.128;2022-12-17T01:57:44;18.80;61.20
73322;DHT22;61549;37.044;22.128;2022-12-17T02:00:29;18.90;61.20
73322;DHT22;61549;37.044;22.128;2022-12-17T02:03:15;19.00;61.00
73322;DHT22;61549;37.044;22.128;2022-12-17T02:09:25;19.00;61.30
73322;DHT22;61549;37.044;22.128;2022-12-17T02:12:53;19.00;61.50
73322;DHT22;61549;37.044;22.128;2022-12-17T02:16:13;18.90;61.70
73322;DHT22;61549;37.044;22.128;2022-12-17T02:21:57;18.70;62.40
73322;DHT22;61549;37.044;22.128;2022-12-17T02:25:04;18.60;62.40
73322;DHT22;61549;37.044;22.128;2022-12-17T02:27:52;18.60;62.40
73322;DHT22;61549;37.044;22.128;2022-12-17T02:30:37;18.50;62.60
73322;DHT22;61549;37.044;22.128;2022-12-17T02:33:21;18.50;62.90
73322;DHT22;61549;37.044;22.128;2022-12-17T02:36:07;18.50;63.00
73322;DHT22;61549;37.044;22.128;2022-12-17T02:38:51;18.40;62.90
73322;DHT22;61549;37.044;22.128;2022-12-17T02:44:26;18.40;62.70
73322;DHT22;61549;37.044;22.128;2022-12-17T02:47:13;18.40;62.90
73322;DHT22;61549;37.044;22.128;2022-12-17T02:49:58;18.40;62.70
73322;DHT22;61549;37.044;22.128;2022-12-17T02:52:45;18.40;62.50
73322;DHT22;61549;37.044;22.128;2022-12-17T02:55:35;18.50;62.20
73322;DHT22;61549;37.044;22.128;2022-12-17T02:58:27;18.60;61.90
73322;DHT22;61549;37.044;22.128;2022-12-17T03:01:11;18.60;62.10
73322;DHT22;61549;37.044;22.128;2022-12-17T03:03:55;18.60;61.00
73322;DHT22;61549;37.044;22.128;2022-12-17T03:06:40;18.50;61.60
73322;DHT22;61549;37.044;22.128;2022-12-17T03:09:26;18.50;62.60
73322;DHT22;61549;37.044;22.128;2022-12-17T03:12:10;18.60;62.50
73322;DHT22;61549;37.044;22.128;2022-12-17T03:14:54;18.60;62.50
73322;DHT22;61549;37.044;22.128;2022-12-17T03:17:40;18.60;62.40
73322;DHT22;61549;37.044;22.128;2022-12-17T03:20:24;18.60;62.30
73322;DHT22;61549;37.044;22.128;2022-12-17T03:23:11;18.60;62.40
73322;DHT22;61549;37.044;22.128;2022-12-17T03:26:00;18.50;62.40
73322;DHT22;61549;37.044;22.128;2022-12-17T03:28:45;18.60;62.50
73322;DHT22;61549;37.044;22.128;2022-12-17T03:31:29;18.50;62.60
73322;DHT22;61549;37.044;22.128;2022-12-17T03:34:14;18.40;62.30
73322;DHT22;61549;37.044;22.128;2022-12-17T03:36:58;18.50;61.80
73322;DHT22;61549;37.044;22.128;2022-12-17T03:39:42;18.50;61.40
73322;DHT22;61549;37.044;22.128;2022-12-17T03:42:26;18.50;61.70
73322;DHT22;61549;37.044;22.128;2022-12-17T03:45:11;18.50;62.20
73322;DHT22;61549;37.044;22.128;2022-12-17T03:48:07;18.50;61.90
73322;DHT22;61549;37.044;22.128;2022-12-17T03:50:52;18.50;61.90
73322;DHT22;61549;37.044;22.128;2022-12-17T03:53:36;18.40;62.30
73322;DHT22;61549;37.044;22.128;2022-12-17T03:56:20;18.40;62.60
73322;DHT22;61549;37.044;22.128;2022-12-17T03:59:05;18.40;62.50
73322;DHT22;61549;37.044;22.128;2022-12-17T04:01:49;18.30;62.10
73322;DHT22;61549;37.044;22.128;2022-12-17T04:04:33;18.40;61.90
73322;DHT22;61549;37.044;22.128;2022-12-17T04:07:19;18.30;61.70
73322;DHT22;61549;37.044;22.128;2022-12-17T04:10:16;18.40;61.60
73322;DHT22;61549;37.044;22.128;2022-12-17T04:13:01;18.40;61.40
73322;DHT22;61549;37.044;22.128;2022-12-17T04:15:45;18.40;61.40
73322;DHT22;61549;37.044;22.128;2022-12-17T04:18:29;18.40;61.40
73322;DHT22;61549;37.044;22.128;2022-12-17T04:21:13;18.50;61.70
73322;DHT22;61549;37.044;22.128;2022-12-17T04:23:57;18.60;61.70
73322;DHT22;61549;37.044;22.128;2022-12-17T04:26:42;18.60;61.80
73322;DHT22;61549;37.044;22.128;2022-12-17T04:29:26;18.60;61.80
73322;DHT22;61549;37.044;22.128;2022-12-17T04:32:10;18.60;62.00
73322;DHT22;61549;37.044;22.128;2022-12-17T04:34:54;18.50;62.00
73322;DHT22;61549;37.044;22.128;2022-12-17T04:37:38;18.40;62.10
73322;DHT22;61549;37.044;22.128;2022-12-17T04:40:22;18.30;62.30
73322;DHT22;61549;37.044;22.128;2022-12-17T04:43:11;18.30;62.40
73322;DHT22;61549;37.044;22.128;2022-12-17T04:45:57;18.30;62.70
73322;DHT22;61549;37.044;22.128;2022-12-17T04:48:42;18.30;62.70
73322;DHT22;61549;37.044;22.128;2022-12-17T04:51:26;18.10;63.00
73322;DHT22;61549;37.044;22.128;2022-12-17T04:54:11;18.20;63.20
73322;DHT22;61549;37.044;22.128;2022-12-17T04:56:57;18.20;63.30
73322;DHT22;61549;37.044;22.128;2022-12-17T04:59:58;18.20;63.50
73322;DHT22;61549;37.044;22.128;2022-12-17T05:02:43;18.20;63.60
73322;DHT22;61549;37.044;22.128;2022-12-17T05:05:28;18.10;63.60
73322;DHT22;61549;37.044;22.128;2022-12-17T05:08:12;18.10;63.60
73322;DHT22;61549;37.044;22.128;2022-12-17T05:11:10;18.10;63.60
73322;DHT22;61549;37.044;22.128;2022-12-17T05:13:55;18.00;63.70
73322;DHT22;61549;37.044;22.128;2022-12-17T05:16:39;18.00;63.90
73322;DHT22;61549;37.044;22.128;2022-12-17T05:19:23;17.90;64.00
73322;DHT22;61549;37.044;22.128;2022-12-17T05:22:07;17.90;64.10
73322;DHT22;61549;37.044;22.128;2022-12-17T05:24:51;17.90;63.90
73322;DHT22;61549;37.044;22.128;2022-12-17T05:27:36;17.90;63.60
73322;DHT22;61549;37.044;22.128;2022-12-17T05:30:30;18.00;63.40
73322;DHT22;61549;37.044;22.128;2022-12-17T05:33:15;18.10;63.20
73322;DHT22;61549;37.044;22.128;2022-12-17T05:36:00;18.20;63.00
73322;DHT22;61549;37.044;22.128;2022-12-17T05:38:46;18.20;62.80
73322;DHT22;61549;37.044;22.128;2022-12-17T05:41:31;18.40;63.00
73322;DHT22;61549;37.044;22.128;2022-12-17T05:44:17;18.40;62.80
73322;DHT22;61549;37.044;22.128;2022-12-17T05:47:02;18.40;62.50
73322;DHT22;61549;37.044;22.128;2022-12-17T05:49:47;18.40;62.30
73322;DHT22;61549;37.044;22.128;2022-12-17T05:52:31;18.40;62.50
73322;DHT22;61549;37.044;22.128;2022-12-17T05:55:16;18.40;62.30
73322;DHT22;61549;37.044;22.128;2022-12-17T05:58:06;18.30;62.20
73322;DHT22;61549;37.044;22.128;2022-12-17T06:00:55;18.40;62.10
73322;DHT22;61549;37.044;22.128;2022-12-17T06:03:40;18.40;61.80
73322;DHT22;61549;37.044;22.128;2022-12-17T06:06:24;18.50;61.70
73322;DHT22;61549;37.044;22.128;2022-12-17T06:09:09;18.50;61.60
73322;DHT22;61549;37.044;22.128;2022-12-17T06:11:53;18.60;61.80
73322;DHT22;61549;37.044;22.128;2022-12-17T06:14:37;18.60;62.00
73322;DHT22;61549;37.044;22.128;2022-12-17T06:17:22;18.60;62.00
73322;DHT22;61549;37.044;22.128;2022-12-17T06:20:06;18.60;61.80
73322;DHT22;61549;37.044;22.128;2022-12-17T06:25:44;18.70;62.20
73322;DHT22;61549;37.044;22.128;2022-12-17T06:28:29;18.70;62.10
73322;DHT22;61549;37.044;22.128;2022-12-17T06:31:18;18.70;62.40
73322;DHT22;61549;37.044;22.128;2022-12-17T06:34:02;18.70;62.70
73322;DHT22;61549;37.044;22.128;2022-12-17T06:36:46;18.70;62.80
73322;DHT22;61549;37.044;22.128;2022-12-17T06:39:30;18.80;62.80
73322;DHT22;61549;37.044;22.128;2022-12-17T06:42:14;18.80;62.90
73322;DHT22;61549;37.044;22.128;2022-12-17T06:44:58;18.80;63.00
73322;DHT22;61549;37.044;22.128;2022-12-17T06:47:43;18.80;63.50
73322;DHT22;61549;37.044;22.128;2022-12-17T06:50:27;18.90;63.70
73322;DHT22;61549;37.044;22.128;2022-12-17T06:53:11;19.10;63.90
73322;DHT22;61549;37.044;22.128;2022-12-17T06:55:59;19.30;63.90
73322;DHT22;61549;37.044;22.128;2022-12-17T06:58:43;19.50;63.50
73322;DHT22;61549;37.044;22.128;2022-12-17T07:01:28;19.70;62.70
73322;DHT22;61549;37.044;22.128;2022-12-17T07:04:12;20.00;62.40
73322;DHT22;61549;37.044;22.128;2022-12-17T07:06:57;20.20;61.30
73322;DHT22;61549;37.044;22.128;2022-12-17T07:09:41;20.50;60.70
73322;DHT22;61549;37.044;22.128;2022-12-17T07:12:25;20.70;61.30
73322;DHT22;61549;37.044;22.128;2022-12-17T07:15:09;20.90;60.90
73322;DHT22;61549;37.044;22.128;2022-12-17T07:17:55;21.10;60.90
73322;DHT22;61549;37.044;22.128;2022-12-17T07:20:39;21.30;61.00
73322;DHT22;61549;37.044;22.128;2022-12-17T07:23:24;21.50;59.50
73322;DHT22;61549;37.044;22.128;2022-12-17T07:26:08;21.70;57.60
73322;DHT22;61549;37.044;22.128;2022-12-17T07:28:52;21.90;57.20
73322;DHT22;61549;37.044;22.128;2022-12-17T07:31:36;22.10;56.70
73322;DHT22;61549;37.044;22.128;2022-12-17T07:34:20;22.20;56.70
73322;DHT22;61549;37.044;22.128;2022-12-17T07:37:04;22.40;57.00
73322;DHT22;61549;37.044;22.128;2022-12-17T07:39:50;22.50;56.90
73322;DHT22;61549;37.044;22.128;2022-12-17T07:42:34;22.60;55.90
73322;DHT22;61549;37.044;22.128;2022-12-17T07:45:19;22.70;55.10
73322;DHT22;61549;37.044;22.128;2022-12-17T07:48:03;23.00;57.40
73322;DHT22;61549;37.044;22.128;2022-12-17T07:50:48;23.10;55.70
73322;DHT22;61549;37.044;22.128;2022-12-17T07:53:55;23.30;54.80
73322;DHT22;61549;37.044;22.128;2022-12-17T08:00:02;23.70;56.30
73322;DHT22;61549;37.044;22.128;2022-12-17T08:02:46;23.80;53.60
73322;DHT22;61549;37.044;22.128;2022-12-17T08:05:30;23.90;54.80
73322;DHT22;61549;37.044;22.128;2022-12-17T08:08:14;24.00;53.50
73322;DHT22;61549;37.044;22.128;2022-12-17T08:10:59;24.10;52.70
73322;DHT22;61549;37.044;22.128;2022-12-17T08:13:43;24.10;52.20
73322;DHT22;61549;37.044;22.128;2022-12-17T08:16:27;24.20;51.90
73322;DHT22;61549;37.044;22.128;2022-12-17T08:19:12;24.30;52.30
73322;DHT22;61549;37.044;22.128;2022-12-17T08:21:56;24.40;52.50
73322;DHT22;61549;37.044;22.128;2022-12-17T08:24:40;24.50;52.00
73322;DHT22;61549;37.044;22.128;2022-12-17T08:27:24;24.50;51.10
73322;DHT22;61549;37.044;22.128;2022-12-17T08:30:09;24.50;51.90
73322;DHT22;61549;37.044;22.128;2022-12-17T08:32:54;24.50;53.80
73322;DHT22;61549;37.044;22.128;2022-12-17T08:35:38;24.40;53.40
73322;DHT22;61549;37.044;22.128;2022-12-17T08:38:24;24.30;53.10
73322;DHT22;61549;37.044;22.128;2022-12-17T08:41:08;24.30;53.30
73322;DHT22;61549;37.044;22.128;2022-12-17T08:43:52;24.30;54.50
73322;DHT22;61549;37.044;22.128;2022-12-17T08:46:36;24.40;54.00
73322;DHT22;61549;37.044;22.128;2022-12-17T08:49:20;24.60;54.10
73322;DHT22;61549;37.044;22.128;2022-12-17T08:52:06;24.80;54.30
73322;DHT22;61549;37.044;22.128;2022-12-17T08:54:51;25.00;52.10
73322;DHT22;61549;37.044;22.128;2022-12-17T08:57:35;25.20;51.60
73322;DHT22;61549;37.044;22.128;2022-12-17T09:00:19;25.40;49.90
73322;DHT22;61549;37.044;22.128;2022-12-17T09:03:03;25.50;49.50
73322;DHT22;61549;37.044;22.128;2022-12-17T09:05:51;25.50;49.00
73322;DHT22;61549;37.044;22.128;2022-12-17T09:08:35;25.70;49.50
73322;DHT22;61549;37.044;22.128;2022-12-17T09:11:20;25.70;49.00
73322;DHT22;61549;37.044;22.128;2022-12-17T09:14:04;25.90;50.20
73322;DHT22;61549;37.044;22.128;2022-12-17T09:16:49;26.10;48.10
73322;DHT22;61549;37.044;22.128;2022-12-17T09:19:33;26.20;47.50
73322;DHT22;61549;37.044;22.128;2022-12-17T09:22:17;26.30;48.60
73322;DHT22;61549;37.044;22.128;2022-12-17T09:25:03;26.30;48.20
73322;DHT22;61549;37.044;22.128;2022-12-17T09:27:47;26.30;49.90
73322;DHT22;61549;37.044;22.128;2022-12-17T09:30:32;26.30;49.60
73322;DHT22;61549;37.044;22.128;2022-12-17T09:33:17;26.30;50.20
73322;DHT22;61549;37.044;22.128;2022-12-17T09:36:03;26.30;50.90
73322;DHT22;61549;37.044;22.128;2022-12-17T09:38:48;26.30;50.90
73322;DHT22;61549;37.044;22.128;2022-12-17T09:48:14;26.40;50.80
73322;DHT22;61549;37.044;22.128;2022-12-17T09:51:02;26.50;50.20
73322;DHT22;61549;37.044;22.128;2022-12-17T09:53:49;26.40;49.20
73322;DHT22;61549;37.044;22.128;2022-12-17T09:56:35;26.50;49.20
73322;DHT22;61549;37.044;22.128;2022-12-17T09:59:31;26.50;49.10
73322;DHT22;61549;37.044;22.128;2022-12-17T10:02:24;26.50;48.70
73322;DHT22;61549;37.044;22.128;2022-12-17T10:05:22;26.50;49.70
73322;DHT22;61549;37.044;22.128;2022-12-17T10:08:11;26.70;49.20
73322;DHT22;61549;37.044;22.128;2022-12-17T10:11:08;26.70;47.40
73322;DHT22;61549;37.044;22.128;2022-12-17T10:13:53;26.90;46.90
73322;DHT22;61549;37.044;22.128;2022-12-17T10:16:44;27.10;48.10
73322;DHT22;61549;37.044;22.128;2022-12-17T10:19:31;27.10;47.40
73322;DHT22;61549;37.044;22.128;2022-12-17T10:22:18;27.10;48.70
73322;DHT22;61549;37.044;22.128;2022-12-17T10:25:22;27.20;47.40
73322;DHT22;61549;37.044;22.128;2022-12-17T10:28:13;27.30;47.50
73322;DHT22;61549;37.044;22.128;2022-12-17T10:30:58;27.10;47.30
73322;DHT22;61549;37.044;22.128;2022-12-17T10:33:43;27.10;48.70
73322;DHT22;61549;37.044;22.128;2022-12-17T10:36:28;27.00;48.30
73322;DHT22;61549;37.044;22.128;2022-12-17T10:39:19;27.00;48.00
73322;DHT22;61549;37.044;22.128;2022-12-17T10:42:26;27.00;48.10
73322;DHT22;61549;37.044;22.128;2022-12-17T10:45:37;27.10;48.30
73322;DHT22;61549;37.044;22.128;2022-12-17T10:48:26;27.00;48.70
73322;DHT22;61549;37.044;22.128;2022-12-17T10:51:32;26.80;48.20
73322;DHT22;61549;37.044;22.128;2022-12-17T10:54:35;26.90;48.90
73322;DHT22;61549;37.044;22.128;2022-12-17T10:57:38;26.90;48.20
73322;DHT22;61549;37.044;22.128;2022-12-17T11:04:33;27.30;47.40
73322;DHT22;61549;37.044;22.128;2022-12-17T11:10:15;27.50;46.60
73322;DHT22;61549;37.044;22.128;2022-12-17T11:13:03;27.40;47.40
73322;DHT22;61549;37.044;22.128;2022-12-17T11:15:59;27.40;47.10
73322;DHT22;61549;37.044;22.128;2022-12-17T11:19:03;27.20;47.50
73322;DHT22;61549;37.044;22.128;2022-12-17T11:21:56;27.20;47.90
73322;DHT22;61549;37.044;22.128;2022-12-17T11:27:45;27.10;47.50
73322;DHT22;61549;37.044;22.128;2022-12-17T11:30:33;27.00;47.70
73322;DHT22;61549;37.044;22.128;2022-12-17T11:33:39;26.90;47.60
73322;DHT22;61549;37.044;22.128;2022-12-17T11:36:42;27.10;48.50
73322;DHT22;61549;37.044;22.128;2022-12-17T11:40:02;26.90;48.40
73322;DHT22;61549;37.044;22.128;2022-12-17T11:43:09;26.70;48.60
73322;DHT22;61549;37.044;22.128;2022-12-17T11:49:15;26.50;48.50
73322;DHT22;61549;37.044;22.128;2022-12-17T11:58:37;26.80;48.40
73322;DHT22;61549;37.044;22.128;2022-12-17T12:01:45;26.90;48.60
73322;DHT22;61549;37.044;22.128;2022-12-17T12:07:37;27.00;48.50
73322;DHT22;61549;37.044;22.128;2022-12-17T12:10:34;27.10;48.00
73322;DHT22;61549;37.044;22.128;2022-12-17T12:16:16;27.00;48.50
73322;DHT22;61549;37.044;22.128;2022-12-17T12:19:25;26.60;50.00
73322;DHT22;61549;37.044;22.128;2022-12-17T12:22:32;26.70;50.40
73322;DHT22;61549;37.044;22.128;2022-12-17T12:34:08;26.70;50.60
73322;DHT22;61549;37.044;22.128;2022-12-17T12:36:55;26.80;50.80
73322;DHT22;61549;37.044;22.128;2022-12-17T12:39:55;27.00;51.00
73322;DHT22;61549;37.044;22.128;2022-12-17T12:42:46;27.10;50.20
73322;DHT22;61549;37.044;22.128;2022-12-17T12:45:54;27.00;50.60
73322;DHT22;61549;37.044;22.128;2022-12-17T12:48:47;27.10;50.60
73322;DHT22;61549;37.044;22.128;2022-12-17T12:51:37;27.10;50.10
73322;DHT22;61549;37.044;22.128;2022-12-17T12:54:29;27.20;49.80
73322;DHT22;61549;37.044;22.128;2022-12-17T12:57:32;27.20;50.20
73322;DHT22;61549;37.044;22.128;2022-12-17T13:00:24;27.30;50.00
73322;DHT22;61549;37.044;22.128;2022-12-17T13:03:51;27.30;50.70
73322;DHT22;61549;37.044;22.128;2022-12-17T13:11:45;27.40;51.40
73322;DHT22;61549;37.044;22.128;2022-12-17T13:14:22;27.40;51.70
73322;DHT22;61549;37.044;22.128;2022-12-17T13:22:31;27.50;51.30
73322;DHT22;61549;37.044;22.128;2022-12-17T13:25:21;27.40;51.20
73322;DHT22;61549;37.044;22.128;2022-12-17T13:27:48;27.40;51.10
73322;DHT22;61549;37.044;22.128;2022-12-17T13:32:56;27.40;51.10
73322;DHT22;61549;37.044;22.128;2022-12-17T13:40:59;27.30;49.10
73322;DHT22;61549;37.044;22.128;2022-12-17T13:43:32;27.20;50.00
73322;DHT22;61549;37.044;22.128;2022-12-17T13:46:22;27.20;49.80
73322;DHT22;61549;37.044;22.128;2022-12-17T13:49:00;27.20;50.00
73322;DHT22;61549;37.044;22.128;2022-12-17T13:51:28;27.20;50.20
73322;DHT22;61549;37.044;22.128;2022-12-17T13:53:59;27.10;50.40
73322;DHT22;61549;37.044;22.128;2022-12-17T13:56:33;27.10;50.50
73322;DHT22;61549;37.044;22.128;2022-12-17T13:59:02;27.00;49.80
73322;DHT22;61549;37.044;22.128;2022-12-17T14:01:30;27.00;49.00
73322;DHT22;61549;37.044;22.128;2022-12-17T14:03:58;27.00;48.60
73322;DHT22;61549;37.044;22.128;2022-12-17T14:06:36;26.90;49.40
73322;DHT22;61549;37.044;22.128;2022-12-17T14:09:02;26.90;50.50
73322;DHT22;61549;37.044;22.128;2022-12-17T14:11:29;26.80;50.60
73322;DHT22;61549;37.044;22.128;2022-12-17T14:14:35;26.80;50.50
73322;DHT22;61549;37.044;22.128;2022-12-17T14:17:04;26.80;50.80
73322;DHT22;61549;37.044;22.128;2022-12-17T14:19:31;26.70;51.10
73322;DHT22;61549;37.044;22.128;2022-12-17T14:21:59;26.60;51.10
73322;DHT22;61549;37.044;22.128;2022-12-17T14:24:26;26.50;51.20
73322;DHT22;61549;37.044;22.128;2022-12-17T14:26:57;26.50;51.40
73322;DHT22;61549;37.044;22.128;2022-12-17T14:29:26;26.40;51.60
73322;DHT22;61549;37.044;22.128;2022-12-17T14:31:57;26.30;51.80
73322;DHT22;61549;37.044;22.128;2022-12-17T14:34:23;26.20;52.50
73322;DHT22;61549;37.044;22.128;2022-12-17T14:36:58;26.20;53.10
73322;DHT22;61549;37.044;22.128;2022-12-17T14:39:32;26.10;53.20
73322;DHT22;61549;37.044;22.128;2022-12-17T14:42:08;26.00;54.10
73322;DHT22;61549;37.044;22.128;2022-12-17T14:45:00;25.90;54.30
73322;DHT22;61549;37.044;22.128;2022-12-17T14:47:32;25.80;54.70
73322;DHT22;61549;37.044;22.128;2022-12-17T14:55:26;25.40;55.70
73322;DHT22;61549;37.044;22.128;2022-12-17T14:58:07;25.30;55.80
73322;DHT22;61549;37.044;22.128;2022-12-17T15:00:40;25.20;56.50
73322;DHT22;61549;37.044;22.128;2022-12-17T15:03:18;25.00;56.90
73322;DHT22;61549;37.044;22.128;2022-12-17T15:05:50;24.80;57.10
73322;DHT22;61549;37.044;22.128;2022-12-17T15:08:16;24.60;57.20
73322;DHT22;61549;37.044;22.128;2022-12-17T15:10:43;24.60;57.50
73322;DHT22;61549;37.044;22.128;2022-12-17T15:16:29;24.40;57.90
73322;DHT22;61549;37.044;22.128;2022-12-17T15:18:55;24.20;58.40
73322;DHT22;61549;37.044;22.128;2022-12-17T15:21:22;24.00;59.20
73322;DHT22;61549;37.044;22.128;2022-12-17T15:23:49;24.00;58.60
73322;DHT22;61549;37.044;22.128;2022-12-17T15:26:15;24.00;58.70
73322;DHT22;61549;37.044;22.128;2022-12-17T15:28:42;23.90;58.80
73322;DHT22;61549;37.044;22.128;2022-12-17T15:31:22;23.90;58.90
73322;DHT22;61549;37.044;22.128;2022-12-17T15:33:48;23.70;58.80
73322;DHT22;61549;37.044;22.128;2022-12-17T15:36:14;23.60;58.80
73322;DHT22;61549;37.044;22.128;2022-12-17T15:38:40;23.50;58.90
73322;DHT22;61549;37.044;22.128;2022-12-17T15:41:06;23.50;58.90
73322;DHT22;61549;37.044;22.128;2022-12-17T15:43:51;23.40;58.70
73322;DHT22;61549;37.044;22.128;2022-12-17T15:46:17;23.40;58.80
73322;DHT22;61549;37.044;22.128;2022-12-17T15:48:43;23.30;59.50
73322;DHT22;61549;37.044;22.128;2022-12-17T15:51:09;23.30;58.90
73322;DHT22;61549;37.044;22.128;2022-12-17T15:53:35;23.20;59.20
73322;DHT22;61549;37.044;22.128;2022-12-17T15:56:03;23.20;59.10
73322;DHT22;61549;37.044;22.128;2022-12-17T15:58:30;23.10;59.00
73322;DHT22;61549;37.044;22.128;2022-12-17T16:00:57;23.10;59.10
73322;DHT22;61549;37.044;22.128;2022-12-17T16:03:23;23.10;59.30
73322;DHT22;61549;37.044;22.128;2022-12-17T16:12:26;23.10;59.20
73322;DHT22;61549;37.044;22.128;2022-12-17T16:14:52;22.90;59.00
73322;DHT22;61549;37.044;22.128;2022-12-17T16:17:18;23.00;59.20
73322;DHT22;61549;37.044;22.128;2022-12-17T16:19:44;23.00;59.80
73322;DHT22;61549;37.044;22.128;2022-12-17T16:22:10;23.00;59.80
73322;DHT22;61549;37.044;22.128;2022-12-17T16:24:36;22.90;59.60
73322;DHT22;61549;37.044;22.128;2022-12-17T16:27:02;22.90;59.90
73322;DHT22;61549;37.044;22.128;2022-12-17T16:29:28;22.90;60.00
73322;DHT22;61549;37.044;22.128;2022-12-17T16:31:54;22.80;59.90
73322;DHT22;61549;37.044;22.128;2022-12-17T16:34:20;22.80;60.10
73322;DHT22;61549;37.044;22.128;2022-12-17T16:36:45;22.60;60.20
73322;DHT22;61549;37.044;22.128;2022-12-17T16:42:11;22.50;60.40
73322;DHT22;61549;37.044;22.128;2022-12-17T16:44:37;22.40;60.80
73322;DHT22;61549;37.044;22.128;2022-12-17T16:47:03;22.30;61.00
73322;DHT22;61549;37.044;22.128;2022-12-17T16:49:29;22.40;60.90
73322;DHT22;61549;37.044;22.128;2022-12-17T16:51:55;22.40;60.60
73322;DHT22;61549;37.044;22.128;2022-12-17T16:54:23;22.30;60.80
73322;DHT22;61549;37.044;22.128;2022-12-17T16:56:51;22.30;60.50
73322;DHT22;61549;37.044;22.128;2022-12-17T16:59:17;22.30;60.50
73322;DHT22;61549;37.044;22.128;2022-12-17T17:01:46;22.30;60.60
73322;DHT22;61549;37.044;22.128;2022-12-17T17:04:14;22.30;60.70
73322;DHT22;61549;37.044;22.128;2022-12-17T17:06:43;22.30;60.60
73322;DHT22;61549;37.044;22.128;2022-12-17T17:09:12;22.30;61.20
73322;DHT22;61549;37.044;22.128;2022-12-17T17:11:39;22.20;60.60
73322;DHT22;61549;37.044;22.128;2022-12-17T17:14:06;22.20;60.70
73322;DHT22;61549;37.044;22.128;2022-12-17T17:16:32;22.20;60.70
73322;DHT22;61549;37.044;22.128;2022-12-17T17:19:01;22.10;60.60
73322;DHT22;61549;37.044;22.128;2022-12-17T17:21:30;22.10;60.70
73322;DHT22;61549;37.044;22.128;2022-12-17T17:23:58;22.10;60.90
73322;DHT22;61549;37.044;22.128;2022-12-17T17:26:27;22.00;60.70
73322;DHT22;61549;37.044;22.128;2022-12-17T17:28:53;22.00;60.20
73322;DHT22;61549;37.044;22.128;2022-12-17T17:31:19;22.00;60.00
73322;DHT22;61549;37.044;22.128;2022-12-17T17:33:48;22.00;60.20
73322;DHT22;61549;37.044;22.128;2022-12-17T17:36:20;22.00;60.30
73322;DHT22;61549;37.044;22.128;2022-12-17T17:38:48;22.00;60.30
73322;DHT22;61549;37.044;22.128;2022-12-17T17:41:17;21.90;60.20
73322;DHT22;61549;37.044;22.128;2022-12-17T17:43:43;22.00;60.20
73322;DHT22;61549;37.044;22.128;2022-12-17T17:46:15;22.00;60.50
73322;DHT22;61549;37.044;22.128;2022-12-17T17:48:49;21.90;60.50
73322;DHT22;61549;37.044;22.128;2022-12-17T17:51:19;21.80;60.60
73322;DHT22;61549;37.044;22.128;2022-12-17T17:53:47;21.80;60.80
73322;DHT22;61549;37.044;22.128;2022-12-17T17:56:19;21.70;61.10
73322;DHT22;61549;37.044;22.128;2022-12-17T17:58:51;21.70;61.30
73322;DHT22;61549;37.044;22.128;2022-12-17T18:01:26;21.60;61.30
73322;DHT22;61549;37.044;22.128;2022-12-17T18:03:55;21.60;61.50
73322;DHT22;61549;37.044;22.128;2022-12-17T18:06:21;21.50;61.60
73322;DHT22;61549;37.044;22.128;2022-12-17T18:08:47;21.50;61.60
73322;DHT22;61549;37.044;22.128;2022-12-17T18:11:15;21.50;61.90
73322;DHT22;61549;37.044;22.128;2022-12-17T18:13:42;21.50;61.70
73322;DHT22;61549;37.044;22.128;2022-12-17T18:18:47;21.40;61.90
73322;DHT22;61549;37.044;22.128;2022-12-17T18:21:15;21.40;62.00
73322;DHT22;61549;37.044;22.128;2022-12-17T18:23:43;21.40;62.00
73322;DHT22;61549;37.044;22.128;2022-12-17T18:26:16;21.30;62.20